Time;durP1;ratioP1;P1;durP2;ratioP2;P2;SDS_P1;SDS_P2;PMS_P1;PMS_P2;Temp;Humidity;BMP_temperature;BMP_pressure;BME280_temperature;BME280_humidity;BME280_pressure;Samples;Min_cycle;Max_cycle;Signal;HPM_P1;HPM_P2
2024/01/07 00:01:56;;;;;;;45.88;18.08;;;4.20;99.90;;;;;;5079305;28;20080;-69
2024/01/07 00:04:21;;;;;;;44.03;17.63;;;4.20;99.90;;;;;;5086562;28;20115;-69
2024/01/07 00:06:47;;;;;;;46.80;18.08;;;4.20;99.90;;;;;;5074606;28;20052;-70
2024/01/07 00:09:13;;;;;;;43.40;17.35;;;4.10;99.90;;;;;;5076544;28;20028;-72
2024/01/07 00:11:39;;;;;;;44.70;18.00;;;4.20;99.90;;;;;;5069679;28;20551;-70
2024/01/07 00:14:05;;;;;;;50.08;17.92;;;4.20;99.90;;;;;;5068248;28;20507;-69
2024/01/07 00:16:30;;;;;;;46.60;17.58;;;4.20;99.90;;;;;;5075410;28;20031;-69
2024/01/07 00:18:56;;;;;;;46.53;17.98;;;4.10;99.90;;;;;;5081971;28;20436;-69
2024/01/07 00:21:22;;;;;;;42.60;17.08;;;4.20;99.90;;;;;;5085646;28;20505;-69
2024/01/07 00:23:47;;;;;;;43.92;17.08;;;4.10;99.90;;;;;;5067712;28;20032;-69
2024/01/07 00:26:13;;;;;;;45.45;17.25;;;4.10;99.90;;;;;;5072805;28;20866;-72
2024/01/07 00:28:39;;;;;;;42.92;17.48;;;4.10;99.90;;;;;;5069421;28;20072;-70
2024/01/07 00:31:04;;;;;;;47.85;18.05;;;4.10;99.90;;;;;;5080287;28;20093;-69
2024/01/07 00:33:35;;;;;;;47.85;17.42;;;4.10;99.90;;;;;;5072932;28;20025;-69
2024/01/07 00:36:01;;;;;;;;;;;4.10;99.90;;;;;;5070019;28;20539;-69
2024/01/07 00:38:27;;;;;;;42.00;17.45;;;4.20;99.90;;;;;;5050584;28;19987;-69
2024/01/07 00:40:52;;;;;;;39.88;16.30;;;4.10;99.90;;;;;;5076289;28;20032;-69
2024/01/07 00:43:18;;;;;;;48.65;18.52;;;4.10;99.90;;;;;;5085830;28;20044;-69
2024/01/07 00:45:44;;;;;;;43.20;17.17;;;4.10;99.90;;;;;;5087096;28;20487;-69
2024/01/07 00:48:09;;;;;;;43.20;16.27;;;4.10;99.90;;;;;;5088561;28;20032;-69
2024/01/07 00:50:35;;;;;;;42.70;17.27;;;4.10;99.90;;;;;;5081515;28;20035;-70
2024/01/07 00:53:01;;;;;;;40.88;16.73;;;4.10;99.90;;;;;;5089166;28;20109;-70
2024/01/07 00:55:26;;;;;;;41.20;17.05;;;4.10;99.90;;;;;;5084282;28;20036;-70
2024/01/07 00:57:52;;;;;;;45.80;17.60;;;4.00;99.90;;;;;;5060080;28;20107;-69
2024/01/07 01:00:18;;;;;;;42.33;17.85;;;4.00;99.90;;;;;;5072011;28;20039;-69
2024/01/07 01:02:44;;;;;;;42.20;16.23;;;4.00;99.90;;;;;;5088613;28;20537;-70
2024/01/07 01:05:09;;;;;;;39.63;15.77;;;4.00;99.90;;;;;;5072321;28;20059;-70
2024/01/07 01:07:35;;;;;;;38.92;16.65;;;4.00;99.90;;;;;;5075154;28;20083;-69
2024/01/07 01:10:01;;;;;;;41.95;16.42;;;4.00;99.90;;;;;;5067729;28;20532;-69
2024/01/07 01:12:26;;;;;;;38.50;16.23;;;4.00;99.90;;;;;;5079299;28;20382;-70
2024/01/07 01:14:52;;;;;;;39.28;16.13;;;4.00;99.90;;;;;;5089314;28;20082;-69
2024/01/07 01:17:17;;;;;;;42.70;16.88;;;4.00;99.90;;;;;;5082489;28;20032;-70
2024/01/07 01:19:43;;;;;;;41.25;16.42;;;4.00;99.90;;;;;;5063994;28;20052;-69
2024/01/07 01:22:09;;;;;;;38.17;15.57;;;4.00;99.90;;;;;;5073143;28;20036;-69
2024/01/07 01:24:34;;;;;;;37.83;16.17;;;4.00;99.90;;;;;;5066882;28;20622;-69
2024/01/07 01:27:00;;;;;;;48.08;16.52;;;4.00;99.90;;;;;;5074564;28;20037;-69
2024/01/07 01:29:26;;;;;;;38.80;15.98;;;4.10;99.90;;;;;;5053917;28;20032;-69
2024/01/07 01:31:51;;;;;;;39.08;15.80;;;4.10;99.90;;;;;;5073511;28;20364;-69
2024/01/07 01:34:17;;;;;;;41.15;16.35;;;4.10;99.90;;;;;;5064960;28;20351;-72
2024/01/07 01:36:42;;;;;;;39.13;15.57;;;4.10;99.90;;;;;;5051541;28;20059;-69
2024/01/07 01:39:08;;;;;;;42.55;17.00;;;4.00;99.90;;;;;;5086314;28;20032;-70
2024/01/07 01:41:34;;;;;;;40.10;16.70;;;4.00;99.90;;;;;;5061725;28;20036;-69
2024/01/07 01:44:00;;;;;;;38.75;15.80;;;4.00;99.90;;;;;;5076700;28;20020;-69
2024/01/07 01:46:28;;;;;;;37.03;16.05;;;4.00;99.90;;;;;;5085268;28;20066;-70
2024/01/07 01:48:55;;;;;;;33.97;14.80;;;4.00;99.90;;;;;;5071196;28;20079;-69
2024/01/07 01:51:21;;;;;;;37.38;16.13;;;4.00;99.90;;;;;;5079673;28;20098;-70
2024/01/07 01:53:49;;;;;;;39.83;15.85;;;4.00;99.90;;;;;;5075553;28;20324;-70
2024/01/07 01:56:17;;;;;;;39.72;15.90;;;4.00;99.90;;;;;;5078621;28;20032;-70
2024/01/07 01:58:43;;;;;;;39.58;16.40;;;4.00;99.90;;;;;;5042036;28;20168;-69
2024/01/07 02:01:08;;;;;;;41.65;15.73;;;4.00;99.90;;;;;;5063431;28;20143;-70
2024/01/07 02:03:34;;;;;;;44.05;16.10;;;4.00;99.90;;;;;;5106179;28;20047;-69
2024/01/07 02:06:00;;;;;;;36.03;15.02;;;4.00;99.90;;;;;;5092150;28;20169;-70
2024/01/07 02:08:26;;;;;;;41.50;15.18;;;4.00;99.90;;;;;;5100052;28;20034;-69
2024/01/07 02:10:52;;;;;;;40.50;14.90;;;4.00;99.90;;;;;;5103266;28;20027;-69
2024/01/07 02:13:17;;;;;;;34.83;14.57;;;4.00;99.90;;;;;;5096830;28;20850;-72
2024/01/07 02:15:43;;;;;;;37.30;14.52;;;4.00;99.90;;;;;;5091714;28;20036;-70
2024/01/07 02:18:09;;;;;;;37.47;14.85;;;3.90;99.90;;;;;;5102754;28;20034;-72
2024/01/07 02:20:38;;;;;;;32.90;14.75;;;4.00;99.90;;;;;;5092345;28;20032;-70
2024/01/07 02:23:04;;;;;;;37.03;14.55;;;3.90;99.90;;;;;;5084323;28;20040;-69
2024/01/07 02:25:34;;;;;;;36.35;14.85;;;4.00;99.90;;;;;;5082342;28;20044;-69
2024/01/07 02:28:00;;;;;;;37.17;14.68;;;3.90;99.90;;;;;;5089299;28;20028;-69
2024/01/07 02:30:27;;;;;;;40.88;16.15;;;3.80;99.90;;;;;;5093280;28;20116;-69
2024/01/07 02:32:52;;;;;;;36.10;14.65;;;3.80;99.90;;;;;;5094560;28;20032;-69
2024/01/07 02:35:18;;;;;;;38.95;15.18;;;3.80;99.90;;;;;;5093673;28;20085;-72
2024/01/07 02:37:43;;;;;;;37.17;15.30;;;3.80;99.90;;;;;;5071934;28;20024;-69
2024/01/07 02:40:10;;;;;;;34.45;14.45;;;3.80;99.90;;;;;;5079221;28;20034;-69
2024/01/07 02:42:35;;;;;;;35.03;14.80;;;3.80;99.90;;;;;;5095096;28;20127;-69
2024/01/07 02:45:01;;;;;;;37.75;14.75;;;3.80;99.90;;;;;;5094466;28;20034;-69
2024/01/07 02:47:27;;;;;;;41.67;15.65;;;3.70;99.90;;;;;;5096627;28;20038;-69
2024/01/07 02:49:52;;;;;;;41.95;16.05;;;3.70;99.90;;;;;;5091536;28;20059;-69
2024/01/07 02:52:18;;;;;;;37.08;14.52;;;3.60;99.90;;;;;;5069970;28;20033;-71
2024/01/07 02:54:43;;;;;;;36.05;15.38;;;3.70;99.90;;;;;;5078816;28;20051;-69
2024/01/07 02:57:09;;;;;;;35.40;15.07;;;3.70;99.90;;;;;;5104579;28;20028;-69
2024/01/07 02:59:35;;;;;;;34.03;14.43;;;3.70;99.90;;;;;;5096582;28;20043;-70
2024/01/07 03:02:00;;;;;;;38.20;15.80;;;3.70;99.90;;;;;;5102569;28;20125;-69
2024/01/07 03:04:26;;;;;;;40.50;15.57;;;3.70;99.90;;;;;;5090255;28;20085;-69
2024/01/07 03:06:52;;;;;;;38.35;16.20;;;3.70;99.90;;;;;;5094205;28;20024;-69
2024/01/07 03:09:17;;;;;;;35.03;15.30;;;3.70;99.90;;;;;;5089830;28;20032;-69
2024/01/07 03:11:43;;;;;;;40.17;15.73;;;3.70;99.90;;;;;;5090097;28;20127;-69
2024/01/07 03:14:10;;;;;;;34.25;15.52;;;3.70;99.90;;;;;;5090742;28;20031;-70
2024/01/07 03:16:35;;;;;;;37.30;14.95;;;3.70;99.90;;;;;;5088692;28;20032;-69
2024/01/07 03:19:02;;;;;;;38.83;14.95;;;3.70;99.90;;;;;;5084175;28;20036;-70
2024/01/07 03:21:28;;;;;;;41.72;15.70;;;3.70;99.90;;;;;;5088574;28;20036;-69
2024/01/07 03:23:53;;;;;;;39.30;16.17;;;3.70;99.90;;;;;;5100698;28;20076;-70
2024/01/07 03:26:19;;;;;;;37.53;15.98;;;3.70;99.90;;;;;;5090236;28;20032;-69
2024/01/07 03:28:45;;;;;;;37.78;15.13;;;3.70;99.90;;;;;;5091220;28;20047;-69
2024/01/07 03:31:15;;;;;;;35.42;15.48;;;3.70;99.90;;;;;;5089564;28;20028;-70
2024/01/07 03:33:42;;;;;;;36.25;15.13;;;3.70;99.90;;;;;;5088368;28;20020;-69
2024/01/07 03:36:09;;;;;;;39.28;15.32;;;3.70;99.90;;;;;;5081565;28;20497;-70
2024/01/07 03:38:36;;;;;;;42.85;16.23;;;3.80;99.90;;;;;;5088268;28;20496;-70
2024/01/07 03:41:02;;;;;;;42.90;16.75;;;3.70;99.90;;;;;;5089409;28;20028;-69
2024/01/07 03:43:28;;;;;;;44.17;16.60;;;3.70;99.90;;;;;;5092565;28;20031;-70
2024/01/07 03:45:54;;;;;;;37.83;15.77;;;3.70;99.90;;;;;;5086287;28;20024;-70
2024/01/07 03:48:26;;;;;;;41.17;16.23;;;3.80;99.90;;;;;;5064308;28;20411;-70
2024/01/07 03:50:52;;;;;;;39.70;16.65;;;3.70;99.90;;;;;;5061105;28;20519;-69
2024/01/07 03:53:18;;;;;;;40.42;16.23;;;3.70;99.90;;;;;;5064802;28;20037;-70
2024/01/07 03:55:43;;;;;;;36.65;15.18;;;3.80;99.90;;;;;;5048825;28;20025;-69
2024/01/07 03:58:09;;;;;;;37.50;15.55;;;3.80;99.90;;;;;;5064771;28;20086;-69
2024/01/07 04:00:36;;;;;;;47.40;17.23;;;3.80;99.90;;;;;;5060575;28;20025;-70
2024/01/07 04:03:02;;;;;;;40.22;16.02;;;3.80;99.90;;;;;;5057130;28;20041;-70
2024/01/07 04:05:29;;;;;;;38.42;15.63;;;3.80;99.90;;;;;;5049409;28;20033;-70
2024/01/07 04:07:54;;;;;;;44.33;17.45;;;3.80;99.90;;;;;;5047730;28;20047;-70
2024/01/07 04:10:20;;;;;;;40.33;16.60;;;3.80;99.90;;;;;;5045646;28;20529;-70
2024/01/07 04:12:46;;;;;;;41.55;17.50;;;3.80;99.90;;;;;;5044549;28;20087;-70
2024/01/07 04:15:12;;;;;;;46.50;16.92;;;3.80;99.90;;;;;;5053922;28;20036;-69
2024/01/07 04:17:37;;;;;;;43.50;17.13;;;3.80;99.90;;;;;;5052746;28;20037;-69
2024/01/07 04:20:04;;;;;;;41.47;17.38;;;3.80;99.90;;;;;;5050691;28;20087;-70
2024/01/07 04:22:29;;;;;;;43.80;16.40;;;3.80;99.90;;;;;;5047193;28;20064;-70
2024/01/07 04:24:55;;;;;;;44.67;16.60;;;3.80;99.90;;;;;;5045225;28;20056;-70
2024/01/07 04:27:21;;;;;;;38.22;16.63;;;3.80;99.90;;;;;;5047117;28;20436;-70
2024/01/07 04:29:46;;;;;;;40.63;17.08;;;3.80;99.90;;;;;;5052106;28;20029;-70
2024/01/07 04:32:12;;;;;;;42.08;16.60;;;3.80;99.90;;;;;;5050801;28;20112;-69
2024/01/07 04:34:38;;;;;;;45.35;17.20;;;3.70;99.90;;;;;;5045381;28;20033;-70
2024/01/07 04:37:03;;;;;;;42.42;17.40;;;3.70;99.90;;;;;;5048273;28;20025;-70
2024/01/07 04:39:29;;;;;;;40.85;16.77;;;3.70;99.90;;;;;;5060484;28;20033;-71
2024/01/07 04:41:55;;;;;;;46.40;17.05;;;3.70;99.90;;;;;;5054815;28;20029;-69
2024/01/07 04:44:20;;;;;;;41.78;17.58;;;3.70;99.90;;;;;;5050200;28;20524;-69
2024/01/07 04:46:48;;;;;;;42.65;17.55;;;3.70;99.90;;;;;;5043917;28;20174;-70
2024/01/07 04:49:14;;;;;;;43.92;17.25;;;3.70;99.90;;;;;;5053218;28;20053;-70
2024/01/07 04:51:40;;;;;;;41.75;17.15;;;3.70;99.90;;;;;;5055312;28;20083;-70
2024/01/07 04:54:05;;;;;;;48.00;18.65;;;3.70;99.90;;;;;;5045586;28;20068;-70
2024/01/07 04:56:32;;;;;;;42.00;16.95;;;3.70;99.90;;;;;;5046538;28;20040;-70
2024/01/07 04:58:57;;;;;;;39.75;16.73;;;3.70;99.90;;;;;;5047154;28;20036;-69
2024/01/07 05:01:23;;;;;;;46.15;17.52;;;3.70;99.90;;;;;;5040031;28;20037;-70
2024/01/07 05:03:49;;;;;;;42.75;17.35;;;3.70;99.90;;;;;;5037129;28;20691;-70
2024/01/07 05:06:15;;;;;;;46.58;18.42;;;3.70;99.90;;;;;;5036185;28;20100;-70
2024/01/07 05:08:41;;;;;;;41.90;16.95;;;3.70;99.90;;;;;;5041141;28;20055;-70
2024/01/07 05:11:07;;;;;;;40.75;15.82;;;3.80;99.90;;;;;;5035333;28;20040;-70
2024/01/07 05:13:33;;;;;;;44.95;17.45;;;3.80;99.90;;;;;;5031348;28;20049;-70
2024/01/07 05:15:59;;;;;;;44.50;17.27;;;3.80;99.90;;;;;;5030691;28;20034;-70
2024/01/07 05:18:25;;;;;;;42.55;17.67;;;3.70;99.90;;;;;;5029529;28;20116;-70
2024/01/07 05:20:50;;;;;;;40.83;16.17;;;3.70;99.90;;;;;;5035238;28;20032;-70
2024/01/07 05:23:16;;;;;;;46.08;17.52;;;3.70;99.90;;;;;;5033722;28;20033;-70
2024/01/07 05:25:44;;;;;;;39.80;16.67;;;3.70;99.90;;;;;;5036771;28;20033;-69
2024/01/07 05:28:13;;;;;;;46.25;18.50;;;3.70;99.90;;;;;;5031673;28;20041;-70
2024/01/07 05:30:39;;;;;;;40.78;17.20;;;3.70;99.90;;;;;;5031231;28;20033;-69
2024/01/07 05:33:05;;;;;;;44.75;17.23;;;3.70;99.90;;;;;;5030287;28;20463;-70
2024/01/07 05:35:31;;;;;;;37.63;16.50;;;3.70;99.90;;;;;;5032344;28;20029;-72
2024/01/07 05:37:57;;;;;;;43.92;16.67;;;3.70;99.90;;;;;;5032885;28;20037;-70
2024/01/07 05:40:23;;;;;;;41.97;16.83;;;3.60;99.90;;;;;;5035115;28;20107;-70
2024/01/07 05:42:48;;;;;;;40.88;16.67;;;3.70;99.90;;;;;;5037757;28;20252;-70
2024/01/07 05:45:14;;;;;;;45.38;15.85;;;3.60;99.90;;;;;;5015732;28;20029;-70
2024/01/07 05:47:40;;;;;;;37.72;15.65;;;3.70;99.90;;;;;;5035950;28;20053;-71
2024/01/07 05:50:07;;;;;;;42.97;17.52;;;3.70;99.90;;;;;;5031713;28;20038;-71
2024/01/07 05:52:32;;;;;;;41.47;17.52;;;3.70;99.90;;;;;;5049628;28;20781;-72
2024/01/07 05:54:58;;;;;;;38.00;16.23;;;3.70;99.90;;;;;;5047454;28;20029;-70
2024/01/07 05:57:24;;;;;;;47.25;16.95;;;3.70;99.90;;;;;;5032490;28;20456;-70
2024/01/07 05:59:50;;;;;;;41.30;15.50;;;3.70;99.90;;;;;;5032574;28;20218;-69
2024/01/07 06:02:17;;;;;;;39.45;15.85;;;3.60;99.90;;;;;;5032033;28;20812;-71
2024/01/07 06:04:42;;;;;;;36.53;15.32;;;3.60;99.90;;;;;;5030954;28;20144;-70
2024/01/07 06:07:08;;;;;;;38.80;16.17;;;3.60;99.90;;;;;;5029340;28;20037;-70
2024/01/07 06:09:34;;;;;;;37.47;15.15;;;3.60;99.90;;;;;;5033186;28;20502;-72
2024/01/07 06:12:00;;;;;;;37.63;16.00;;;3.50;99.90;;;;;;5048791;28;20029;-70
2024/01/07 06:14:25;;;;;;;39.60;16.83;;;3.50;99.90;;;;;;5042176;28;20025;-70
2024/01/07 06:16:52;;;;;;;42.88;15.55;;;3.50;99.90;;;;;;5033576;28;20435;-70
2024/01/07 06:19:26;;;;;;;40.03;16.55;;;3.60;99.90;;;;;;5032529;28;20025;-69
2024/01/07 06:21:51;;;;;;;40.00;14.77;;;3.60;99.90;;;;;;5043842;28;20579;-70
2024/01/07 06:24:17;;;;;;;35.80;14.65;;;3.50;99.90;;;;;;5041343;28;20065;-70
2024/01/07 06:26:43;;;;;;;43.17;15.82;;;3.50;99.90;;;;;;5028328;28;20125;-69
2024/01/07 06:29:09;;;;;;;32.78;14.32;;;3.50;99.90;;;;;;5029472;28;20256;-70
2024/01/07 06:31:35;;;;;;;40.45;15.95;;;3.50;99.90;;;;;;5037566;28;20032;-72
2024/01/07 06:34:01;;;;;;;36.45;14.35;;;3.40;99.90;;;;;;5041200;28;20037;-70
2024/01/07 06:36:26;;;;;;;31.58;14.43;;;3.40;99.90;;;;;;5034786;28;20033;-70
2024/01/07 06:38:52;;;;;;;37.20;15.35;;;3.40;99.90;;;;;;5029989;28;20060;-70
2024/01/07 06:41:19;;;;;;;32.40;14.07;;;3.30;99.90;;;;;;5035099;28;20036;-70
2024/01/07 06:43:44;;;;;;;37.72;14.88;;;3.40;99.90;;;;;;5033869;28;20498;-70
2024/01/07 06:46:10;;;;;;;36.55;15.57;;;3.40;99.90;;;;;;5033802;28;20112;-70
2024/01/07 06:48:36;;;;;;;30.92;13.70;;;3.40;99.90;;;;;;5029362;28;20060;-72
2024/01/07 06:51:01;;;;;;;32.35;14.10;;;3.30;99.90;;;;;;5036097;28;20102;-71
2024/01/07 06:53:27;;;;;;;39.70;15.48;;;3.30;99.90;;;;;;5028780;28;20414;-70
2024/01/07 06:55:53;;;;;;;34.40;14.07;;;3.30;99.90;;;;;;5039532;28;20029;-70
2024/01/07 06:58:19;;;;;;;34.38;13.98;;;3.30;99.90;;;;;;5048748;28;20049;-70
2024/01/07 07:00:44;;;;;;;33.65;14.38;;;3.30;99.90;;;;;;5037140;28;20052;-70
2024/01/07 07:03:11;;;;;;;27.65;12.07;;;3.20;99.90;;;;;;5028826;28;20048;-69
2024/01/07 07:05:36;;;;;;;29.98;11.77;;;3.10;99.90;;;;;;5031724;28;20037;-72
2024/01/07 07:08:02;;;;;;;26.42;10.93;;;3.00;99.90;;;;;;5044727;28;20044;-69
2024/01/07 07:10:28;;;;;;;24.80;11.05;;;3.00;99.90;;;;;;5036097;28;20509;-69
2024/01/07 07:12:53;;;;;;;27.13;11.18;;;3.00;99.90;;;;;;5030670;28;20047;-70
2024/01/07 07:15:19;;;;;;;24.73;10.48;;;3.00;99.90;;;;;;5044015;28;20040;-69
2024/01/07 07:17:45;;;;;;;26.80;11.40;;;3.00;99.90;;;;;;5027555;28;20518;-69
2024/01/07 07:20:11;;;;;;;35.75;14.68;;;3.00;99.90;;;;;;5028815;28;20041;-69
2024/01/07 07:22:37;;;;;;;23.20;9.95;;;2.90;99.90;;;;;;5029769;28;20445;-77
2024/01/07 07:25:03;;;;;;;32.90;12.63;;;2.90;99.90;;;;;;5031343;28;20117;-71
2024/01/07 07:27:29;;;;;;;30.35;13.43;;;2.80;99.90;;;;;;5027975;28;20072;-71
2024/01/07 07:29:54;;;;;;;37.15;14.43;;;2.80;99.90;;;;;;5034545;28;20478;-73
2024/01/07 07:32:20;;;;;;;46.75;17.95;;;2.80;99.90;;;;;;5029324;28;20030;-72
2024/01/07 07:34:46;;;;;;;54.80;19.40;;;2.80;99.90;;;;;;5008363;28;20049;-71
2024/01/07 07:37:13;;;;;;;39.35;15.57;;;2.80;99.90;;;;;;5059461;28;20033;-71
2024/01/07 07:39:38;;;;;;;32.17;13.82;;;2.90;99.90;;;;;;5031384;28;20470;-76
2024/01/07 07:42:04;;;;;;;32.50;13.27;;;2.90;99.90;;;;;;5029476;28;20058;-72
2024/01/07 07:44:30;;;;;;;29.33;12.23;;;2.80;99.90;;;;;;5036427;28;20357;-71
2024/01/07 07:46:55;;;;;;;28.30;12.25;;;2.80;99.90;;;;;;5033250;28;20053;-72
2024/01/07 07:49:21;;;;;;;26.50;11.30;;;2.80;99.90;;;;;;5023207;28;20522;-72
2024/01/07 07:51:47;;;;;;;24.83;10.65;;;2.80;99.90;;;;;;5021883;28;20032;-73
2024/01/07 07:54:12;;;;;;;26.52;10.77;;;2.90;99.90;;;;;;5028613;28;20745;-72
2024/01/07 07:56:38;;;;;;;24.13;9.90;;;2.80;99.90;;;;;;5029728;28;20071;-77
2024/01/07 07:59:04;;;;;;;24.45;9.93;;;2.90;99.90;;;;;;5032534;28;20110;-72
2024/01/07 08:01:29;;;;;;;19.63;9.38;;;2.90;99.90;;;;;;5032686;28;20044;-73
2024/01/07 08:03:55;;;;;;;24.17;9.52;;;2.90;99.90;;;;;;5030143;28;20025;-72
2024/01/07 08:06:21;;;;;;;21.63;9.52;;;2.90;99.90;;;;;;5022296;28;20041;-74
2024/01/07 08:08:47;;;;;;;22.35;9.88;;;2.90;99.90;;;;;;5022205;28;20029;-72
2024/01/07 08:11:13;;;;;;;30.63;11.15;;;2.90;99.90;;;;;;5045716;28;20391;-73
2024/01/07 08:13:39;;;;;;;24.45;10.55;;;2.90;99.90;;;;;;5033163;28;20044;-76
2024/01/07 08:16:05;;;;;;;28.23;10.75;;;2.90;99.90;;;;;;5035636;28;20029;-72
2024/01/07 08:18:31;;;;;;;27.98;10.60;;;2.90;99.90;;;;;;5044065;28;20030;-72
2024/01/07 08:20:57;;;;;;;29.02;12.65;;;2.90;99.90;;;;;;5036430;28;20090;-71
2024/01/07 08:23:24;;;;;;;23.00;10.18;;;2.90;99.90;;;;;;5028182;28;20760;-73
2024/01/07 08:25:51;;;;;;;28.42;12.23;;;2.90;99.90;;;;;;5033975;28;20038;-72
2024/01/07 08:28:17;;;;;;;21.63;9.98;;;2.80;99.90;;;;;;5030344;28;20042;-71
2024/01/07 08:30:44;;;;;;;27.05;10.95;;;2.80;99.90;;;;;;5030509;28;20041;-75
2024/01/07 08:33:10;;;;;;;25.75;10.75;;;2.90;99.90;;;;;;5028336;28;20029;-72
2024/01/07 08:35:35;;;;;;;24.77;9.95;;;2.90;99.90;;;;;;5041807;28;20799;-72
2024/01/07 08:38:01;;;;;;;26.13;11.13;;;2.90;99.90;;;;;;5031914;28;20116;-72
2024/01/07 08:40:27;;;;;;;28.17;10.50;;;2.80;99.90;;;;;;5024745;28;20650;-74
2024/01/07 08:42:53;;;;;;;30.83;11.52;;;2.80;99.90;;;;;;5029615;28;20112;-73
2024/01/07 08:45:19;;;;;;;28.08;11.75;;;2.80;99.90;;;;;;5026922;28;20044;-72
2024/01/07 08:47:44;;;;;;;24.98;10.00;;;2.80;99.90;;;;;;5042116;28;20049;-73
2024/01/07 08:50:10;;;;;;;25.25;10.30;;;2.80;99.90;;;;;;5027695;28;20028;-71
2024/01/07 08:52:36;;;;;;;23.60;9.50;;;2.70;99.90;;;;;;5028432;28;20087;-73
2024/01/07 08:55:02;;;;;;;25.45;10.20;;;2.70;99.90;;;;;;5029005;28;20318;-75
2024/01/07 08:57:28;;;;;;;28.77;10.68;;;2.70;99.90;;;;;;5020180;28;20065;-73
2024/01/07 08:59:53;;;;;;;27.83;10.70;;;2.70;99.90;;;;;;5023792;28;20072;-72
2024/01/07 09:02:19;;;;;;;27.15;11.50;;;2.70;99.90;;;;;;5025245;28;20030;-72
2024/01/07 09:04:45;;;;;;;28.63;10.23;;;2.70;99.90;;;;;;5027360;28;20021;-76
2024/01/07 09:07:10;;;;;;;22.55;9.57;;;2.70;99.90;;;;;;5021255;28;20091;-71
2024/01/07 09:09:37;;;;;;;21.08;9.80;;;2.60;99.90;;;;;;5027500;28;20029;-72
2024/01/07 09:12:03;;;;;;;23.25;10.18;;;2.70;99.90;;;;;;5025032;28;20095;-71
2024/01/07 09:14:30;;;;;;;24.20;9.95;;;2.60;99.90;;;;;;5026242;28;20029;-71
2024/01/07 09:16:55;;;;;;;23.63;9.68;;;2.50;99.90;;;;;;5022052;28;20029;-72
2024/01/07 09:19:21;;;;;;;21.65;8.93;;;2.50;99.90;;;;;;5030438;28;20536;-73
2024/01/07 09:21:46;;;;;;;25.23;10.02;;;2.40;99.90;;;;;;5027791;28;20520;-71
2024/01/07 09:24:12;;;;;;;23.88;9.52;;;2.40;99.90;;;;;;5028043;28;20092;-71
2024/01/07 09:26:38;;;;;;;26.55;9.23;;;2.40;99.90;;;;;;5028844;28;20046;-72
2024/01/07 09:29:03;;;;;;;21.38;8.85;;;2.40;99.90;;;;;;5028009;28;20032;-72
2024/01/07 09:31:29;;;;;;;23.67;8.68;;;2.30;99.90;;;;;;5026193;28;20526;-72
2024/01/07 09:33:55;;;;;;;22.02;9.32;;;2.30;99.90;;;;;;5027991;28;20021;-72
2024/01/07 09:36:20;;;;;;;20.45;8.45;;;2.30;99.90;;;;;;5027020;28;20554;-71
2024/01/07 09:38:46;;;;;;;22.40;9.15;;;2.30;99.90;;;;;;5025981;28;20030;-77
2024/01/07 09:41:12;;;;;;;22.67;9.45;;;2.30;99.90;;;;;;5025590;28;20117;-73
2024/01/07 09:43:37;;;;;;;24.58;11.00;;;2.20;99.90;;;;;;5027944;28;20033;-73
2024/01/07 09:46:03;;;;;;;21.73;9.73;;;2.20;99.90;;;;;;5025302;28;20577;-73
2024/01/07 09:48:29;;;;;;;24.45;9.38;;;2.30;99.90;;;;;;5025900;28;20046;-71
2024/01/07 09:50:58;;;;;;;19.17;8.82;;;2.20;99.90;;;;;;5025277;28;20022;-72
2024/01/07 09:53:30;;;;;;;22.58;8.73;;;2.20;99.90;;;;;;5026889;28;20060;-73
2024/01/07 09:56:20;;;;;;;23.50;8.98;;;2.20;99.90;;;;;;5022261;28;20491;-72
2024/01/07 09:58:49;;;;;;;22.17;10.27;;;2.20;99.90;;;;;;5017852;28;20095;-75
2024/01/07 10:01:18;;;;;;;19.65;8.35;;;2.20;99.90;;;;;;5023862;28;20403;-71
2024/01/07 10:03:44;;;;;;;22.02;10.02;;;2.10;99.90;;;;;;5023455;28;20386;-76
2024/01/07 10:06:11;;;;;;;23.17;9.05;;;2.20;99.90;;;;;;5020175;28;20029;-72
2024/01/07 10:08:37;;;;;;;25.13;9.25;;;2.20;99.90;;;;;;5026254;28;20042;-71
2024/01/07 10:11:04;;;;;;;24.00;9.50;;;2.20;99.90;;;;;;5021148;28;20037;-72
2024/01/07 10:13:31;;;;;;;23.58;9.73;;;2.20;99.90;;;;;;5040540;28;20064;-72
2024/01/07 10:15:56;;;;;;;26.23;10.38;;;2.20;99.90;;;;;;5026549;28;20513;-72
2024/01/07 10:18:22;;;;;;;23.73;9.65;;;2.20;99.90;;;;;;5025364;28;20083;-71
2024/01/07 10:20:48;;;;;;;31.40;10.80;;;2.10;99.90;;;;;;5024722;28;20061;-76
2024/01/07 10:23:19;;;;;;;16.88;7.35;;;2.10;99.90;;;;;;5029758;28;20347;-71
2024/01/07 10:25:45;;;;;;;20.55;7.85;;;2.10;99.90;;;;;;5024657;28;20033;-76
2024/01/07 10:28:11;;;;;;;18.55;8.45;;;2.10;99.90;;;;;;5025355;28;20037;-71
2024/01/07 10:30:40;;;;;;;20.73;8.25;;;2.00;99.90;;;;;;5026081;28;20040;-71
2024/01/07 10:33:07;;;;;;;20.95;8.40;;;2.10;99.90;;;;;;5022622;28;20033;-72
2024/01/07 10:35:34;;;;;;;21.70;8.52;;;2.10;99.90;;;;;;5023145;28;20029;-73
2024/01/07 10:38:01;;;;;;;24.25;8.88;;;2.10;99.90;;;;;;5025791;28;20163;-72
2024/01/07 10:40:31;;;;;;;23.05;9.85;;;2.10;99.90;;;;;;5025805;28;20504;-72
2024/01/07 10:42:57;;;;;;;41.00;14.18;;;2.10;99.90;;;;;;5038333;28;20034;-72
2024/01/07 10:45:23;;;;;;;28.13;11.70;;;2.10;99.90;;;;;;5018890;28;20041;-74
2024/01/07 10:47:51;;;;;;;25.40;10.95;;;2.10;99.90;;;;;;5026976;28;20461;-76
2024/01/07 10:50:17;;;;;;;29.38;11.80;;;2.00;99.90;;;;;;5013301;28;20486;-72
2024/01/07 10:52:47;;;;;;;25.65;10.82;;;2.00;99.90;;;;;;5009660;28;20034;-72
2024/01/07 10:55:14;;;;;;;28.48;11.90;;;1.90;99.90;;;;;;5009436;28;20072;-72
2024/01/07 10:57:45;;;;;;;26.60;10.32;;;2.00;99.90;;;;;;5009410;28;20096;-72
2024/01/07 11:00:21;;;;;;;32.63;12.30;;;1.90;99.90;;;;;;5009134;28;20113;-72
2024/01/07 11:02:59;;;;;;;28.70;11.27;;;2.00;99.90;;;;;;5022881;28;20030;-76
2024/01/07 11:05:34;;;;;;;27.50;10.73;;;1.90;99.90;;;;;;5024740;28;20475;-72
2024/01/07 11:08:15;;;;;;;26.30;10.80;;;1.90;99.90;;;;;;5008591;28;20030;-72
2024/01/07 11:10:50;;;;;;;27.67;11.10;;;1.90;99.90;;;;;;5027374;28;20037;-73
2024/01/07 11:13:37;;;;;;;32.28;12.60;;;1.90;99.90;;;;;;5025799;28;20030;-72
2024/01/07 11:16:10;;;;;;;31.25;12.75;;;1.90;99.90;;;;;;5027016;28;20037;-72
2024/01/07 11:18:39;;;;;;;30.35;12.02;;;1.90;99.90;;;;;;5027798;28;20359;-72
2024/01/07 11:21:06;;;;;;;28.17;11.13;;;1.90;99.90;;;;;;5026085;28;20041;-72
2024/01/07 11:23:43;;;;;;;36.67;14.60;;;1.90;99.90;;;;;;5026680;28;20026;-73
2024/01/07 11:26:10;;;;;;;32.83;13.68;;;1.90;99.90;;;;;;5026304;28;20025;-72
2024/01/07 11:28:45;;;;;;;28.77;10.73;;;1.80;99.90;;;;;;5023231;28;20036;-74
2024/01/07 11:31:11;;;;;;;27.98;11.93;;;1.90;99.90;;;;;;5015544;28;20034;-75
2024/01/07 11:33:37;;;;;;;28.17;12.23;;;1.90;99.90;;;;;;5024758;28;20370;-72
2024/01/07 11:36:05;;;;;;;25.48;10.00;;;1.90;99.90;;;;;;5023494;28;20029;-71
2024/01/07 11:38:30;;;;;;;32.53;12.95;;;1.80;99.90;;;;;;5025617;28;20037;-72
2024/01/07 11:40:57;;;;;;;41.75;15.35;;;1.80;99.90;;;;;;5025744;28;20374;-73
2024/01/07 11:43:23;;;;;;;27.60;12.00;;;1.80;99.90;;;;;;5027523;28;20041;-72
2024/01/07 11:45:53;;;;;;;29.48;11.25;;;1.80;99.90;;;;;;5026726;28;20033;-73
2024/01/07 11:48:19;;;;;;;31.50;11.77;;;1.70;99.90;;;;;;5028329;28;20060;-72
2024/01/07 11:50:44;;;;;;;31.30;12.95;;;1.70;99.90;;;;;;5026219;28;20382;-73
2024/01/07 11:53:12;;;;;;;32.33;12.20;;;1.60;99.90;;;;;;5025993;28;20028;-73
2024/01/07 11:55:38;;;;;;;47.47;18.02;;;1.60;99.90;;;;;;5026834;28;20368;-73
2024/01/07 11:58:04;;;;;;;52.42;19.33;;;1.60;99.90;;;;;;5027539;28;20489;-72
2024/01/07 12:00:34;;;;;;;35.92;12.85;;;1.70;99.90;;;;;;5028566;28;20082;-73
2024/01/07 12:03:03;;;;;;;30.73;11.85;;;1.60;99.90;;;;;;5027227;28;20474;-72
2024/01/07 12:05:29;;;;;;;27.38;10.60;;;1.50;99.90;;;;;;5028770;28;20466;-74
2024/01/07 12:07:55;;;;;;;26.85;10.35;;;1.50;99.90;;;;;;5025668;28;20033;-77
2024/01/07 12:10:21;;;;;;;27.30;10.88;;;1.50;99.90;;;;;;5032422;28;20041;-72
2024/01/07 12:12:47;;;;;;;47.20;15.80;;;1.40;99.90;;;;;;5029141;28;20059;-73
2024/01/07 12:15:13;;;;;;;31.85;11.55;;;1.40;99.90;;;;;;5031592;28;20053;-72
2024/01/07 12:17:39;;;;;;;35.03;13.38;;;1.40;99.90;;;;;;5030989;28;20120;-73
2024/01/07 12:20:07;;;;;;;44.80;16.20;;;1.40;99.90;;;;;;5028632;28;20033;-73
2024/01/07 12:22:32;;;;;;;40.45;14.65;;;1.30;99.90;;;;;;5047137;28;20418;-72
2024/01/07 12:25:06;;;;;;;98.38;33.35;;;1.30;99.90;;;;;;5029558;28;20030;-73
2024/01/07 12:27:34;;;;;;;49.15;18.83;;;1.20;99.90;;;;;;5030931;28;20045;-73
2024/01/07 12:30:00;;;;;;;40.17;15.57;;;1.10;99.90;;;;;;5030423;28;20095;-74
2024/01/07 12:32:30;;;;;;;31.17;12.38;;;1.10;99.90;;;;;;5030272;28;20034;-72
2024/01/07 12:34:59;;;;;;;;;;;1.20;99.90;;;;;;5030648;28;20489;-78